createdAt,value
2022-11-08T00:03:18.697Z,5.5
2022-11-08T00:05:37.421Z,4.2
2022-11-08T00:10:37.985Z,3.3
2022-11-08T00:15:39.119Z,5.3
2022-11-08T00:20:39.129Z,4.2
2022-11-08T00:25:39.845Z,3.8
2022-11-08T00:30:40.514Z,3.5
2022-11-08T00:35:41.056Z,1.9
2022-11-08T00:40:41.804Z,2.5
2022-11-08T00:45:42.566Z,1.9
2022-11-08T00:50:43.038Z,2.6
2022-11-08T00:55:43.766Z,2.8
2022-11-08T01:00:44.553Z,3.5
2022-11-08T01:05:45.001Z,2.0
2022-11-08T01:10:45.805Z,1.7
2022-11-08T01:15:46.739Z,2.5
2022-11-08T01:20:46.984Z,2.1
2022-11-08T01:25:47.788Z,2.2
2022-11-08T01:30:48.534Z,3.4
2022-11-08T01:35:49.032Z,1.8
2022-11-08T01:40:49.872Z,1.1
2022-11-08T01:45:50.551Z,1.2
2022-11-08T01:50:51.049Z,1.9
2022-11-08T01:55:51.855Z,1.3
2022-11-08T02:00:52.685Z,1.4
2022-11-08T02:05:53.202Z,2.2
2022-11-08T02:10:53.881Z,1.2
2022-11-08T02:15:56.335Z,1.2
2022-11-08T02:20:55.255Z,1.6
2022-11-08T02:25:55.935Z,1.1
2022-11-08T02:30:57.143Z,1.8
2022-11-08T02:35:57.301Z,1.1
2022-11-08T02:40:58.024Z,2.1
2022-11-08T02:45:58.894Z,4.3
2022-11-08T02:50:59.430Z,4.4
2022-11-08T02:56:00.027Z,2.8
2022-11-08T03:01:00.918Z,2.0
2022-11-08T03:06:01.454Z,1.2
2022-11-08T03:11:02.031Z,2.1
2022-11-08T03:16:02.874Z,1.1
2022-11-08T03:21:03.483Z,4.0
2022-11-08T03:26:04.064Z,1.9
2022-11-08T03:31:05.200Z,2.8
2022-11-08T03:36:05.437Z,4.7
2022-11-08T03:41:06.154Z,5.7
2022-11-08T03:46:06.974Z,4.4
2022-11-08T03:51:07.515Z,4.8
2022-11-08T03:56:08.085Z,4.3
2022-11-08T04:01:08.945Z,4.4
2022-11-08T04:06:09.463Z,5.8
2022-11-08T04:11:10.052Z,7.4
2022-11-08T04:16:15.201Z,5.7
2022-11-08T04:21:11.339Z,7.0
2022-11-08T04:26:11.893Z,11.0
2022-11-08T04:31:12.900Z,4.9
2022-11-08T04:36:13.145Z,6.5
2022-11-08T04:41:13.836Z,3.8
2022-11-08T04:46:14.556Z,5.1
2022-11-08T04:51:15.053Z,6.2
2022-11-08T04:56:15.700Z,5.7
2022-11-08T05:01:16.583Z,4.6
2022-11-08T05:06:16.975Z,2.6
2022-11-08T05:11:17.693Z,5.8
2022-11-08T05:16:18.235Z,5.0
2022-11-08T05:21:18.934Z,3.4
2022-11-08T05:26:19.486Z,3.3
2022-11-08T05:31:20.383Z,6.8
2022-11-08T05:36:20.641Z,4.6
2022-11-08T05:41:21.242Z,5.6
2022-11-08T05:46:21.917Z,5.7
2022-11-08T05:51:22.524Z,7.8
2022-11-08T05:56:23.041Z,6.4
2022-11-08T06:01:23.917Z,4.4
2022-11-08T06:06:24.306Z,4.9
2022-11-08T06:11:24.855Z,5.1
2022-11-08T06:16:25.585Z,4.1
2022-11-08T06:21:26.234Z,2.6
2022-11-08T06:26:26.780Z,1.6
2022-11-08T06:31:27.774Z,1.6
2022-11-08T06:36:27.904Z,4.7
2022-11-08T06:41:28.546Z,2.7
2022-11-08T06:46:29.143Z,2.0
2022-11-08T06:51:29.694Z,1.7
2022-11-08T06:56:30.309Z,4.7
2022-11-08T07:01:31.042Z,2.9
2022-11-08T07:06:31.421Z,3.2
2022-11-08T07:11:31.953Z,2.0
2022-11-08T07:16:32.732Z,2.6
2022-11-08T07:21:33.144Z,2.2
2022-11-08T07:26:33.901Z,3.5
2022-11-08T07:31:34.822Z,2.3
2022-11-08T07:36:34.984Z,2.3
2022-11-08T07:41:35.644Z,2.2
2022-11-08T07:46:36.343Z,3.2
2022-11-08T07:51:36.764Z,5.2
2022-11-08T07:56:37.476Z,5.4
2022-11-08T08:01:38.248Z,7.6
2022-11-08T08:06:38.631Z,2.7
2022-11-08T08:11:39.095Z,2.8
2022-11-08T08:16:39.900Z,3.5
2022-11-08T08:21:40.416Z,3.4
2022-11-08T08:26:40.907Z,2.1
2022-11-08T08:31:41.721Z,1.2
2022-11-08T08:36:42.138Z,2.3
2022-11-08T08:41:42.765Z,3.4
2022-11-08T08:46:43.436Z,3.8
2022-11-08T08:51:43.855Z,1.2
2022-11-08T08:56:44.569Z,3.9
2022-11-08T09:01:45.166Z,1.6
2022-11-08T09:06:45.767Z,3.9
2022-11-08T09:11:46.235Z,4.6
2022-11-08T09:16:46.860Z,4.0
2022-11-08T09:21:47.532Z,2.4
2022-11-08T09:26:47.935Z,1.7
2022-11-08T09:31:48.978Z,3.3
2022-11-08T09:36:49.131Z,4.2
2022-11-08T09:41:52.932Z,1.7
2022-11-08T09:46:50.584Z,2.4
2022-11-08T09:51:50.878Z,1.8
2022-11-08T09:56:51.639Z,3.3
2022-11-08T10:01:52.230Z,1.5
2022-11-08T10:06:54.001Z,4.5
2022-11-08T10:11:53.354Z,2.8
2022-11-08T10:16:53.906Z,3.7
2022-11-08T10:21:54.462Z,2.2
2022-11-08T10:26:54.986Z,1.6
2022-11-08T10:31:55.752Z,2.5
2022-11-08T10:36:56.165Z,1.5
2022-11-08T10:41:56.744Z,2.4
2022-11-08T10:46:57.438Z,1.7
2022-11-08T10:51:58.052Z,2.3
2022-11-08T10:56:58.583Z,1.5
2022-11-08T11:01:59.193Z,2.2
2022-11-08T11:06:59.749Z,3.0
2022-11-08T11:12:00.222Z,1.2
2022-11-08T11:17:00.847Z,2.5
2022-11-08T11:22:01.394Z,1.6
2022-11-08T11:27:01.871Z,1.0
2022-11-08T11:32:03.064Z,1.9
2022-11-08T11:37:03.104Z,1.5
2022-11-08T11:42:18.070Z,3.6
2022-11-08T11:47:04.454Z,1.8
2022-11-08T11:52:04.967Z,2.4
2022-11-08T11:57:05.578Z,2.3
2022-11-08T12:02:06.460Z,2.2
2022-11-08T12:07:06.729Z,1.2
2022-11-08T12:12:07.400Z,2.1
2022-11-08T12:17:07.908Z,4.2
2022-11-08T12:22:08.492Z,1.3
2022-11-08T12:27:09.012Z,1.6
2022-11-08T12:32:10.189Z,1.5
2022-11-08T12:37:10.131Z,2.7
2022-11-08T12:42:10.771Z,3.3
2022-11-08T12:47:11.440Z,1.7
2022-11-08T12:52:11.823Z,3.8
2022-11-08T12:57:12.546Z,1.9
2022-11-08T13:02:13.197Z,2.4
2022-11-08T13:07:13.889Z,3.3
2022-11-08T13:12:14.341Z,3.4
2022-11-08T13:17:14.921Z,3.2
2022-11-08T13:22:15.500Z,2.2
2022-11-08T13:27:15.940Z,2.0
2022-11-08T13:32:17.230Z,3.5
2022-11-08T13:37:17.070Z,3.4
2022-11-08T13:42:17.807Z,4.8
2022-11-08T13:47:18.435Z,2.9
2022-11-08T13:52:18.837Z,3.7
2022-11-08T13:57:19.544Z,2.8
2022-11-08T14:02:20.171Z,2.6
2022-11-08T14:07:24.860Z,3.1
2022-11-08T14:12:21.223Z,2.7
2022-11-08T14:17:21.939Z,2.1
2022-11-08T14:22:22.452Z,3.1
2022-11-08T14:27:23.011Z,3.0
2022-11-08T14:32:23.958Z,2.9
2022-11-08T14:37:24.243Z,2.5
2022-11-08T14:42:24.767Z,2.6
2022-11-08T14:47:25.527Z,2.3
2022-11-08T14:52:26.156Z,4.2
2022-11-08T14:57:26.628Z,2.1
2022-11-08T15:02:27.394Z,2.4
2022-11-08T15:07:27.823Z,1.7
2022-11-08T15:12:28.531Z,1.7
2022-11-08T15:17:28.973Z,1.8
2022-11-08T15:22:29.520Z,1.9
2022-11-08T15:27:30.153Z,3.3
2022-11-08T15:32:30.844Z,2.0
2022-11-08T15:37:31.131Z,3.2
2022-11-08T15:42:31.929Z,2.8
2022-11-08T15:47:32.427Z,2.1
2022-11-08T15:52:32.930Z,2.4
2022-11-08T15:57:33.524Z,2.5
2022-11-08T16:02:34.099Z,2.6
2022-11-08T16:07:34.811Z,3.0
2022-11-08T16:12:35.354Z,3.4
2022-11-08T16:17:35.836Z,3.4
2022-11-08T16:22:36.549Z,7.1
2022-11-08T16:27:37.029Z,3.7
2022-11-08T16:32:38.245Z,3.5
2022-11-08T16:37:38.150Z,3.9
2022-11-08T16:42:38.644Z,4.5
2022-11-08T16:47:40.757Z,3.5
2022-11-08T16:52:39.948Z,1.8
2022-11-08T16:57:40.465Z,7.2
2022-11-08T17:02:41.082Z,2.5
2022-11-08T17:07:41.681Z,1.3
2022-11-08T17:12:42.080Z,2.3
2022-11-08T17:17:42.812Z,1.6
2022-11-08T17:22:45.635Z,3.1
2022-11-08T17:27:43.729Z,4.8
2022-11-08T17:32:45.834Z,2.9
2022-11-08T17:37:45.024Z,4.7
2022-11-08T17:42:45.649Z,2.3
2022-11-08T17:47:46.229Z,1.7
2022-11-08T17:52:46.773Z,2.8
2022-11-08T17:57:47.357Z,1.6
2022-11-08T18:02:48.044Z,1.5
2022-11-08T18:07:48.680Z,2.9
2022-11-08T18:12:49.075Z,1.6
2022-11-08T18:17:49.781Z,2.4
2022-11-08T18:22:50.075Z,1.9
2022-11-08T18:27:50.646Z,2.2
2022-11-08T18:32:51.519Z,1.3
2022-11-08T18:37:51.716Z,1.4
2022-11-08T18:42:52.285Z,2.4
2022-11-08T18:47:52.984Z,2.3
2022-11-08T18:52:53.392Z,2.4
2022-11-08T18:57:53.925Z,1.0
2022-11-08T19:02:54.648Z,1.1
2022-11-08T19:07:54.970Z,1.8
2022-11-08T19:12:55.772Z,1.2
2022-11-08T19:17:56.751Z,2.9
2022-11-08T19:22:56.856Z,1.6
2022-11-08T19:27:57.222Z,1.4
2022-11-08T19:32:58.143Z,1.6
2022-11-08T19:37:58.386Z,0.9
2022-11-08T19:42:58.782Z,2.4
2022-11-08T19:47:59.657Z,1.1
2022-11-08T19:53:03.843Z,0.6
2022-11-08T19:58:00.597Z,2.3
2022-11-08T20:03:01.158Z,2.2
2022-11-08T20:08:01.674Z,2.8
2022-11-08T20:13:02.306Z,1.3
2022-11-08T20:18:02.972Z,1.9
2022-11-08T20:23:03.390Z,0.7
2022-11-08T20:28:03.996Z,1.2
2022-11-08T20:33:05.113Z,1.6
2022-11-08T20:38:04.960Z,0.8
2022-11-08T20:43:05.820Z,1.8
2022-11-08T20:48:06.188Z,1.0
2022-11-08T20:53:07.939Z,3.3
2022-11-08T20:58:07.194Z,2.4
2022-11-08T21:03:07.818Z,1.1
2022-11-08T21:08:57.229Z,1.3
2022-11-08T21:13:08.986Z,1.1
2022-11-08T21:18:09.705Z,3.0
2022-11-08T21:23:09.982Z,1.2
2022-11-08T21:28:10.539Z,1.8
2022-11-08T21:33:11.598Z,1.7
2022-11-08T21:38:12.674Z,1.0
2022-11-08T21:43:12.088Z,1.6
2022-11-08T21:48:15.487Z,0.9
2022-11-08T21:53:13.334Z,1.4
2022-11-08T21:58:13.732Z,1.0
2022-11-08T22:03:14.631Z,2.0
2022-11-08T22:08:15.270Z,1.1
2022-11-08T22:13:15.617Z,1.6
2022-11-08T22:18:19.791Z,1.7
2022-11-08T22:23:16.750Z,1.6
2022-11-08T22:28:17.581Z,0.9
2022-11-08T22:33:18.069Z,2.2
2022-11-08T22:38:18.606Z,1.9
2022-11-08T22:43:18.928Z,1.8
2022-11-08T22:48:19.859Z,1.2
2022-11-08T22:53:20.329Z,1.4
2022-11-08T22:58:20.607Z,0.7
2022-11-08T23:03:21.537Z,0.8
2022-11-08T23:08:21.764Z,1.0
2022-11-08T23:13:22.338Z,1.0
2022-11-08T23:18:22.921Z,0.6
2022-11-08T23:23:23.544Z,0.7
2022-11-08T23:28:24.055Z,0.7
2022-11-08T23:33:24.968Z,1.2
2022-11-08T23:38:25.192Z,1.0
2022-11-08T23:43:25.733Z,1.9
2022-11-08T23:48:26.439Z,1.9
2022-11-08T23:53:26.914Z,1.9
2022-11-08T23:58:27.552Z,1.2
